Time;durP1;ratioP1;P1;durP2;ratioP2;P2;SDS_P1;SDS_P2;PMS_P1;PMS_P2;Temp;Humidity;BMP_temperature;BMP_pressure;BME280_temperature;BME280_humidity;BME280_pressure;Samples;Min_cycle;Max_cycle;Signal;HPM_P1;HPM_P2
2022/01/26 00:06:12;;;;;;;12.30;5.10;;;2.40;99.90;;;;;;4945548;28;20123;-63
2022/01/26 00:08:39;;;;;;;5.47;2.92;;;2.40;99.90;;;;;;4940026;28;20035;-63
2022/01/26 00:11:05;;;;;;;5.88;3.58;;;2.40;99.90;;;;;;4946266;28;20443;-63
2022/01/26 00:13:31;;;;;;;8.68;3.90;;;2.40;99.90;;;;;;4942839;28;20506;-63
2022/01/26 00:15:59;;;;;;;11.35;4.95;;;2.30;99.90;;;;;;4942443;28;20114;-63
2022/01/26 00:18:29;;;;;;;9.18;4.20;;;2.40;99.90;;;;;;4941511;28;20024;-63
2022/01/26 00:20:59;;;;;;;12.55;4.78;;;2.30;99.90;;;;;;4945333;28;20023;-63
2022/01/26 00:26:24;;;;;;;7.68;3.45;;;2.40;99.90;;;;;;4944619;28;20038;-63
2022/01/26 00:42:50;;;;;;;11.98;6.10;;;2.40;99.90;;;;;;4948108;28;20046;-62
2022/01/26 00:45:21;;;;;;;11.07;4.40;;;2.40;99.90;;;;;;4944915;28;20453;-62
2022/01/26 00:47:47;;;;;;;5.90;3.05;;;2.50;99.90;;;;;;4953278;28;20037;-63
2022/01/26 00:50:13;;;;;;;12.45;4.22;;;2.40;99.90;;;;;;4953847;28;20030;-62
2022/01/26 00:52:41;;;;;;;10.85;4.63;;;2.50;99.90;;;;;;4948931;28;20031;-62
2022/01/26 00:55:09;;;;;;;13.15;5.53;;;2.40;99.90;;;;;;4951966;28;20063;-62
2022/01/26 00:57:35;;;;;;;10.93;4.63;;;2.40;99.90;;;;;;4941127;29;20031;-63
2022/01/26 01:00:03;;;;;;;18.02;5.68;;;2.40;99.90;;;;;;4950097;28;20042;-63
2022/01/26 01:02:30;;;;;;;4.20;2.75;;;2.50;99.90;;;;;;4950226;28;20050;-62
2022/01/26 01:04:59;;;;;;;10.85;5.10;;;2.50;99.90;;;;;;4954345;28;20038;-62
2022/01/26 01:07:24;;;;;;;11.77;4.47;;;2.50;99.90;;;;;;4948426;28;20058;-62
2022/01/26 01:09:50;;;;;;;15.27;5.18;;;2.60;99.90;;;;;;4946991;28;20055;-62
2022/01/26 01:12:16;;;;;;;14.55;4.32;;;2.50;99.90;;;;;;4951190;28;20050;-62
2022/01/26 01:14:44;;;;;;;14.50;6.72;;;;;;;;;;4944773;29;20070;-63
2022/01/26 01:17:20;;;;;;;14.23;4.53;;;2.50;99.90;;;;;;4952674;28;20031;-62
2022/01/26 01:20:03;;;;;;;20.13;4.43;;;2.50;99.90;;;;;;4942549;28;20038;-62
2022/01/26 01:32:52;;;;;;;11.27;4.90;;;2.50;99.90;;;;;;4948112;28;20475;-62
2022/01/26 01:35:19;;;;;;;14.45;5.07;;;2.50;99.90;;;;;;4954409;28;20042;-62
2022/01/26 01:37:45;;;;;;;15.48;6.03;;;2.50;99.90;;;;;;4947215;28;20372;-62
2022/01/26 01:40:11;;;;;;;10.35;4.78;;;2.60;99.90;;;;;;4948140;28;20436;-62
2022/01/26 01:42:37;;;;;;;14.77;5.75;;;2.70;99.90;;;;;;4946656;28;20074;-62
2022/01/26 01:45:03;;;;;;;21.90;8.13;;;2.70;99.90;;;;;;4944366;28;20047;-62
2022/01/26 01:47:29;;;;;;;12.48;5.65;;;2.80;99.90;;;;;;4945306;28;20031;-63
2022/01/26 01:49:55;;;;;;;18.13;5.88;;;2.80;99.90;;;;;;4947877;28;20019;-62
2022/01/26 01:52:21;;;;;;;12.30;5.95;;;2.80;99.90;;;;;;4943070;28;20028;-62
2022/01/26 01:54:52;;;;;;;16.77;7.10;;;2.70;99.90;;;;;;4949103;28;20027;-62
2022/01/26 01:57:23;;;;;;;16.25;6.10;;;2.60;99.90;;;;;;4946320;28;20051;-62
2022/01/26 01:59:49;;;;;;;12.38;5.28;;;2.70;99.90;;;;;;4946082;28;20028;-62
2022/01/26 02:02:15;;;;;;;14.73;6.13;;;2.70;99.90;;;;;;4945314;28;20031;-62
2022/01/26 02:04:41;;;;;;;11.05;6.13;;;2.70;99.90;;;;;;4947338;28;20036;-62
2022/01/26 02:07:07;;;;;;;19.38;5.53;;;2.70;99.90;;;;;;4944239;28;20464;-63
2022/01/26 02:09:32;;;;;;;17.88;5.22;;;2.70;99.90;;;;;;4927289;28;20038;-62
2022/01/26 02:12:01;;;;;;;17.60;6.63;;;2.70;99.90;;;;;;4948158;28;20034;-62
2022/01/26 02:14:34;;;;;;;17.67;5.97;;;2.70;99.90;;;;;;4941655;28;20649;-63
2022/01/26 02:53:01;;;;;;;15.55;5.97;;;2.80;99.90;;;;;;4946905;28;20066;-62
2022/01/26 03:03:25;;;;;;;25.02;6.25;;;2.80;99.90;;;;;;4943736;28;20023;-62
2022/01/26 03:06:03;;;;;;;12.48;6.57;;;2.70;99.90;;;;;;4947154;28;20027;-62
2022/01/26 03:08:36;;;;;;;12.25;5.57;;;2.70;99.90;;;;;;4944733;28;20031;-62
2022/01/26 03:11:11;;;;;;;30.67;7.75;;;2.70;99.90;;;;;;4944447;28;20038;-62
2022/01/26 03:13:43;;;;;;;19.90;6.88;;;2.80;99.90;;;;;;4946914;28;20024;-62
2022/01/26 03:16:18;;;;;;;38.28;8.63;;;2.80;99.90;;;;;;4941433;28;20028;-62
2022/01/26 03:19:15;;;;;;;13.20;6.90;;;2.80;99.90;;;;;;4949284;28;20387;-63
2022/01/26 03:22:21;;;;;;;8.82;4.82;;;2.80;99.90;;;;;;4944569;28;20023;-62
2022/01/26 03:35:16;;;;;;;22.50;7.90;;;2.80;99.90;;;;;;4944811;28;20039;-62
2022/01/26 03:37:51;;;;;;;11.48;5.47;;;2.70;99.90;;;;;;4949069;28;20019;-62
2022/01/26 03:40:17;;;;;;;9.48;4.90;;;2.70;99.90;;;;;;4948784;28;20027;-62
2022/01/26 03:42:43;;;;;;;15.75;6.43;;;2.80;99.90;;;;;;4944808;28;20082;-62
2022/01/26 03:45:08;;;;;;;27.58;6.47;;;2.80;99.90;;;;;;4943183;28;20330;-62
2022/01/26 03:47:34;;;;;;;10.55;5.07;;;2.80;99.90;;;;;;4951176;28;20028;-63
2022/01/26 03:50:00;;;;;;;16.38;5.75;;;2.70;99.90;;;;;;4947377;28;20058;-62
2022/01/26 03:52:25;;;;;;;15.52;6.10;;;2.80;99.90;;;;;;4943821;28;20039;-62
2022/01/26 03:54:51;;;;;;;26.60;8.32;;;2.70;99.90;;;;;;4947179;28;20538;-62
2022/01/26 03:57:17;;;;;;;16.83;8.15;;;2.80;99.90;;;;;;4945392;29;20031;-62
2022/01/26 03:59:42;;;;;;;21.95;6.25;;;2.80;99.90;;;;;;4943460;28;20288;-62
2022/01/26 04:02:08;;;;;;;9.60;4.43;;;2.80;99.90;;;;;;4946579;28;20391;-62
2022/01/26 04:04:42;;;;;;;25.05;8.50;;;2.70;99.90;;;;;;4941496;28;20024;-62
2022/01/26 04:07:08;;;;;;;11.27;5.03;;;2.70;99.90;;;;;;4945634;28;20054;-61
2022/01/26 04:09:33;;;;;;;15.18;8.43;;;2.60;99.90;;;;;;4940791;28;20062;-63
2022/01/26 04:11:59;;;;;;;22.55;6.97;;;2.60;99.90;;;;;;4946730;28;20450;-62
2022/01/26 04:14:29;;;;;;;19.30;7.43;;;2.60;99.90;;;;;;4943326;28;20027;-62
2022/01/26 04:16:54;;;;;;;10.82;4.70;;;2.30;99.90;;;;;;4938476;28;20083;-62
2022/01/26 04:19:21;;;;;;;28.77;6.80;;;2.60;99.90;;;;;;4947532;28;20059;-62
2022/01/26 04:26:57;;;;;;;8.30;5.07;;;2.60;99.90;;;;;;4946246;28;20165;-62
2022/01/26 04:29:27;;;;;;;16.20;5.93;;;2.90;99.90;;;;;;4941774;28;20440;-62
2022/01/26 04:31:53;;;;;;;;;;;2.60;99.90;;;;;;4944989;28;20919;-63
2022/01/26 04:34:19;;;;;;;8.73;4.63;;;2.60;99.90;;;;;;4947486;28;20383;-62
2022/01/26 04:36:57;;;;;;;21.70;6.25;;;2.60;99.90;;;;;;4942496;28;20136;-62
2022/01/26 04:39:31;;;;;;;15.60;7.55;;;2.60;99.90;;;;;;4946860;28;20026;-62
2022/01/26 04:42:12;;;;;;;4.30;3.28;;;2.50;99.90;;;;;;4944557;28;20115;-62
2022/01/26 04:44:44;;;;;;;11.93;6.40;;;2.50;99.90;;;;;;4945913;28;20240;-62
2022/01/26 04:47:10;;;;;;;11.38;4.93;;;2.40;99.90;;;;;;4941825;28;20027;-61
2022/01/26 04:49:35;;;;;;;7.72;3.17;;;2.40;99.90;;;;;;4946679;28;20023;-62
2022/01/26 04:52:02;;;;;;;7.65;4.40;;;2.40;99.90;;;;;;4943553;28;20114;-62
2022/01/26 04:54:27;;;;;;;20.63;8.48;;;2.50;99.90;;;;;;4943026;28;20035;-62
2022/01/26 04:56:53;;;;;;;20.95;6.38;;;2.40;99.90;;;;;;4944253;28;20050;-63
2022/01/26 04:59:19;;;;;;;17.70;6.60;;;2.40;99.90;;;;;;4937784;28;20026;-62
2022/01/26 05:01:44;;;;;;;10.30;5.75;;;2.40;99.90;;;;;;4942810;28;20492;-62
2022/01/26 05:04:10;;;;;;;14.00;7.30;;;2.50;99.90;;;;;;4943973;28;20028;-62
2022/01/26 05:06:35;;;;;;;13.90;4.80;;;2.40;99.90;;;;;;4944939;28;20520;-62
2022/01/26 05:09:02;;;;;;;25.63;8.63;;;2.50;99.90;;;;;;4942233;28;20036;-63
2022/01/26 05:11:37;;;;;;;6.25;3.97;;;2.50;99.90;;;;;;4943108;28;20129;-62
2022/01/26 05:14:04;;;;;;;10.98;6.35;;;2.50;99.90;;;;;;4942016;28;20082;-62
2022/01/26 05:16:30;;;;;;;23.95;9.73;;;2.50;99.90;;;;;;4940544;28;20032;-62
2022/01/26 05:18:56;;;;;;;6.43;4.82;;;2.40;99.90;;;;;;4944433;28;20020;-62
2022/01/26 05:21:24;;;;;;;19.25;5.25;;;2.50;99.90;;;;;;4920362;29;20035;-63
2022/01/26 05:23:49;;;;;;;18.55;4.97;;;2.50;99.90;;;;;;4945981;28;20082;-62
2022/01/26 05:26:16;;;;;;;25.20;7.22;;;2.40;99.90;;;;;;4943207;28;20032;-62
2022/01/26 05:28:41;;;;;;;16.30;4.10;;;2.40;99.90;;;;;;4950179;28;20074;-61
2022/01/26 05:31:07;;;;;;;21.42;8.18;;;2.40;99.90;;;;;;4949186;28;20027;-62
2022/01/26 05:33:33;;;;;;;18.55;8.55;;;2.40;99.90;;;;;;4946948;28;20036;-62
2022/01/26 05:35:58;;;;;;;16.83;6.82;;;2.40;99.90;;;;;;4949007;28;20037;-62
2022/01/26 05:38:24;;;;;;;49.95;11.82;;;2.40;99.90;;;;;;4941581;28;20020;-62
2022/01/26 05:40:50;;;;;;;11.98;5.18;;;2.40;99.90;;;;;;4947017;28;20488;-61
2022/01/26 05:43:16;;;;;;;23.52;8.75;;;2.40;99.90;;;;;;4947823;28;20023;-61
2022/01/26 05:45:47;;;;;;;16.20;7.28;;;2.30;99.90;;;;;;4944773;28;20028;-62
2022/01/26 05:48:13;;;;;;;32.35;8.40;;;2.50;99.90;;;;;;4947268;28;20019;-61
2022/01/26 05:50:49;;;;;;;13.60;6.75;;;2.40;99.90;;;;;;4945543;28;20349;-62
2022/01/26 05:53:16;;;;;;;15.20;5.07;;;2.40;99.90;;;;;;4947966;28;20024;-62
2022/01/26 05:55:42;;;;;;;28.70;9.25;;;2.40;99.90;;;;;;4943778;28;20059;-62
2022/01/26 05:58:07;;;;;;;40.53;7.63;;;2.50;99.90;;;;;;4947085;28;20106;-62
2022/01/26 06:00:33;;;;;;;17.08;5.82;;;2.50;99.90;;;;;;4942100;28;20551;-62
2022/01/26 06:02:58;;;;;;;22.85;8.73;;;2.50;99.90;;;;;;4950772;28;20031;-62
2022/01/26 06:05:24;;;;;;;19.77;9.68;;;2.50;99.90;;;;;;4946970;28;20106;-63
2022/01/26 06:07:50;;;;;;;30.65;9.93;;;2.50;99.90;;;;;;4942954;28;20491;-62
2022/01/26 06:10:15;;;;;;;29.50;9.50;;;2.40;99.90;;;;;;4949244;28;20042;-62
2022/01/26 06:12:41;;;;;;;51.60;9.63;;;2.50;99.90;;;;;;4944149;28;20019;-62
2022/01/26 06:15:07;;;;;;;25.15;12.27;;;2.50;99.90;;;;;;4948997;28;20070;-62
2022/01/26 06:17:33;;;;;;;32.40;10.55;;;2.50;99.90;;;;;;4950428;28;20070;-62
2022/01/26 06:19:58;;;;;;;39.00;10.70;;;2.50;99.90;;;;;;4946891;28;20031;-62
2022/01/26 06:22:24;;;;;;;55.80;14.10;;;2.50;99.90;;;;;;4949151;28;20074;-61
2022/01/26 06:24:49;;;;;;;21.92;8.18;;;2.40;99.90;;;;;;4947202;28;20038;-62
2022/01/26 06:27:15;;;;;;;25.92;8.40;;;2.60;99.90;;;;;;4943958;28;20034;-62
2022/01/26 06:29:41;;;;;;;17.33;8.65;;;2.40;99.90;;;;;;4951136;28;20047;-62
2022/01/26 06:32:07;;;;;;;32.55;11.75;;;2.50;99.90;;;;;;4945656;28;21086;-62
2022/01/26 06:34:38;;;;;;;18.70;9.98;;;2.50;99.90;;;;;;4944655;29;20121;-62
2022/01/26 06:37:05;;;;;;;29.05;8.30;;;2.50;99.90;;;;;;4946853;28;20142;-62
2022/01/26 06:39:31;;;;;;;8.63;5.22;;;2.50;99.90;;;;;;4943848;28;20114;-62
2022/01/26 06:41:57;;;;;;;45.25;13.48;;;2.50;99.90;;;;;;4948478;28;20142;-62
2022/01/26 06:44:29;;;;;;;25.42;9.98;;;2.40;99.90;;;;;;4947665;28;20107;-62
2022/01/26 06:47:17;;;;;;;46.60;11.27;;;2.40;99.90;;;;;;4943688;28;20028;-61
2022/01/26 06:49:42;;;;;;;29.27;9.10;;;2.50;99.90;;;;;;4953785;28;20041;-62
2022/01/26 06:52:08;;;;;;;21.40;10.65;;;2.50;99.90;;;;;;4945402;28;20050;-61
2022/01/26 06:54:34;;;;;;;17.80;7.75;;;2.50;99.90;;;;;;4945632;28;20387;-62
2022/01/26 06:56:59;;;;;;;44.58;13.65;;;2.50;99.90;;;;;;4943743;28;20038;-62
2022/01/26 06:59:25;;;;;;;22.30;9.57;;;2.40;99.90;;;;;;4956466;28;20026;-62
2022/01/26 07:01:51;;;;;;;22.35;8.23;;;2.40;99.90;;;;;;4951112;28;20472;-62
2022/01/26 07:04:17;;;;;;;21.80;9.88;;;2.50;99.90;;;;;;4944024;28;20027;-62
2022/01/26 07:06:43;;;;;;;33.92;13.02;;;2.50;99.90;;;;;;4945030;28;20377;-62
2022/01/26 07:09:09;;;;;;;24.88;11.38;;;2.50;99.90;;;;;;4944360;28;20039;-62
2022/01/26 07:11:35;;;;;;;35.22;11.88;;;2.50;99.90;;;;;;4942564;28;20039;-62
2022/01/26 07:14:02;;;;;;;28.92;7.82;;;2.50;99.90;;;;;;4950166;28;20100;-62
2022/01/26 07:21:56;;;;;;;26.98;6.30;;;2.50;99.90;;;;;;4958313;28;20498;-62
2022/01/26 07:24:22;;;;;;;19.00;8.10;;;2.30;99.90;;;;;;4941220;28;20019;-62
2022/01/26 07:26:52;;;;;;;28.20;13.27;;;2.40;99.90;;;;;;4948512;28;20507;-62
2022/01/26 07:29:22;;;;;;;;;;;2.50;99.90;;;;;;4949455;28;20440;-62
2022/01/26 07:31:48;;;;;;;22.40;6.45;;;2.50;99.90;;;;;;4949275;28;19920;-63
2022/01/26 07:34:14;;;;;;;30.17;13.38;;;2.40;99.90;;;;;;4941843;28;20053;-63
2022/01/26 07:36:46;;;;;;;29.15;11.00;;;2.40;99.90;;;;;;4944682;28;20385;-62
2022/01/26 07:39:16;;;;;;;20.75;7.85;;;2.40;99.90;;;;;;4946176;28;20074;-62
2022/01/26 07:41:41;;;;;;;16.35;6.90;;;2.50;99.90;;;;;;4946784;28;20585;-62
2022/01/26 07:44:07;;;;;;;18.02;7.90;;;2.50;99.90;;;;;;4926500;28;20063;-62
2022/01/26 07:46:33;;;;;;;23.05;9.13;;;2.50;99.90;;;;;;4945855;28;20024;-62
2022/01/26 07:48:59;;;;;;;11.13;6.32;;;2.40;99.90;;;;;;4942455;28;20127;-63
2022/01/26 07:51:25;;;;;;;15.43;5.50;;;2.30;99.90;;;;;;4946431;28;20042;-62
2022/01/26 07:53:51;;;;;;;21.67;9.43;;;2.40;99.90;;;;;;4944872;28;20020;-62
2022/01/26 07:56:16;;;;;;;29.50;10.43;;;2.40;99.90;;;;;;4942358;28;20476;-62
2022/01/26 07:58:43;;;;;;;19.80;6.75;;;2.40;99.90;;;;;;4952761;28;20015;-62
2022/01/26 08:01:08;;;;;;;30.63;8.93;;;2.50;99.90;;;;;;4949983;28;20022;-62
2022/01/26 08:03:34;;;;;;;14.38;5.43;;;2.40;99.90;;;;;;4946026;28;20109;-62
2022/01/26 08:06:01;;;;;;;24.85;7.43;;;2.50;99.90;;;;;;4954400;28;20038;-63
2022/01/26 08:08:28;;;;;;;19.33;7.10;;;2.50;99.90;;;;;;4946809;28;20023;-63
2022/01/26 08:10:58;;;;;;;16.50;7.35;;;2.50;99.90;;;;;;4951992;28;20038;-63
2022/01/26 08:13:24;;;;;;;18.23;7.55;;;2.50;99.90;;;;;;4941629;29;20038;-63
2022/01/26 08:15:50;;;;;;;30.25;8.52;;;2.50;99.90;;;;;;4925488;28;20042;-63
2022/01/26 08:18:15;;;;;;;34.20;11.95;;;2.50;99.90;;;;;;4942045;28;20074;-63
2022/01/26 08:20:41;;;;;;;35.35;11.85;;;2.40;99.90;;;;;;4942027;28;20528;-63
2022/01/26 08:23:07;;;;;;;27.25;10.77;;;2.40;99.90;;;;;;4938865;28;20020;-62
2022/01/26 08:25:33;;;;;;;16.83;8.20;;;2.40;99.90;;;;;;4955817;28;20085;-63
2022/01/26 08:28:21;;;;;;;12.00;6.18;;;2.40;99.90;;;;;;4954570;28;20044;-63
2022/01/26 08:30:47;;;;;;;13.40;7.40;;;2.40;99.90;;;;;;4955069;28;20059;-63
2022/01/26 08:33:13;;;;;;;20.65;7.53;;;2.50;99.90;;;;;;4945937;28;20067;-63
2022/01/26 08:35:38;;;;;;;24.48;9.63;;;2.50;99.90;;;;;;4940818;28;20039;-63
2022/01/26 08:38:04;;;;;;;21.10;8.80;;;2.60;99.90;;;;;;4941946;28;20023;-63
2022/01/26 08:40:33;;;;;;;23.90;9.25;;;2.60;99.90;;;;;;4943827;28;20047;-63
2022/01/26 08:42:58;;;;;;;47.15;13.07;;;2.70;99.90;;;;;;4945642;29;20506;-63
2022/01/26 08:45:24;;;;;;;24.02;9.65;;;2.60;99.90;;;;;;4944973;29;20032;-63
2022/01/26 08:47:50;;;;;;;19.73;9.88;;;2.70;99.90;;;;;;4952125;28;20034;-63
2022/01/26 08:50:16;;;;;;;40.22;8.52;;;2.70;99.90;;;;;;4943604;28;20039;-63
2022/01/26 08:52:42;;;;;;;27.38;11.88;;;2.60;99.90;;;;;;4947685;28;20540;-63
2022/01/26 08:55:10;;;;;;;18.88;6.40;;;2.70;99.90;;;;;;4946685;28;20082;-63
2022/01/26 08:57:36;;;;;;;27.98;7.15;;;2.70;99.90;;;;;;4943146;28;20074;-63
2022/01/26 09:00:03;;;;;;;28.08;8.88;;;2.70;99.90;;;;;;4948209;28;20094;-63
2022/01/26 09:02:29;;;;;;;20.27;6.45;;;2.70;99.90;;;;;;4946577;28;20409;-63
2022/01/26 09:04:54;;;;;;;36.00;11.32;;;2.70;99.90;;;;;;4937486;28;20030;-63
2022/01/26 09:07:20;;;;;;;21.95;8.82;;;2.70;99.90;;;;;;4948195;28;20035;-63
2022/01/26 09:09:46;;;;;;;21.25;6.15;;;2.70;99.90;;;;;;4945899;28;20106;-63
2022/01/26 09:12:19;;;;;;;30.10;9.68;;;2.70;99.90;;;;;;4949378;28;20082;-63
2022/01/26 09:14:46;;;;;;;21.13;7.93;;;2.60;99.90;;;;;;4946038;28;20050;-63
2022/01/26 09:17:13;;;;;;;27.02;8.68;;;2.70;99.90;;;;;;4949504;28;20027;-63
2022/01/26 09:19:42;;;;;;;33.60;12.55;;;2.60;99.90;;;;;;4945771;28;20039;-63
2022/01/26 09:22:15;;;;;;;30.00;9.20;;;2.60;99.90;;;;;;4949620;28;20024;-63
2022/01/26 09:24:42;;;;;;;35.85;11.20;;;2.60;99.90;;;;;;4951075;28;20457;-63
2022/01/26 09:27:12;;;;;;;32.15;8.73;;;2.60;99.90;;;;;;4948834;28;20075;-63
2022/01/26 09:29:38;;;;;;;25.00;9.17;;;2.70;99.90;;;;;;4942201;28;20067;-63
2022/01/26 09:32:05;;;;;;;25.80;7.90;;;2.60;99.90;;;;;;4947323;28;20315;-63
2022/01/26 09:34:31;;;;;;;21.90;7.95;;;2.70;99.90;;;;;;4948241;28;20022;-63
2022/01/26 09:36:57;;;;;;;30.40;6.88;;;2.60;99.90;;;;;;4950994;28;20039;-63
2022/01/26 09:39:23;;;;;;;14.02;4.35;;;2.60;99.90;;;;;;4948724;28;20087;-63
2022/01/26 09:41:50;;;;;;;45.50;12.68;;;2.60;99.90;;;;;;4949528;28;20036;-63
2022/01/26 09:44:17;;;;;;;31.75;7.78;;;2.60;99.90;;;;;;4946958;28;20445;-63
2022/01/26 09:46:44;;;;;;;13.93;6.35;;;3.80;99.90;;;;;;4946772;28;20039;-63
2022/01/26 09:49:10;;;;;;;28.52;10.43;;;2.60;99.90;;;;;;4946550;28;20043;-63
2022/01/26 09:51:41;;;;;;;14.48;7.50;;;2.60;99.90;;;;;;4947296;28;20050;-63
2022/01/26 09:54:12;;;;;;;35.67;10.50;;;2.60;99.90;;;;;;4947139;28;20066;-63
2022/01/26 09:56:38;;;;;;;16.77;5.72;;;2.60;99.90;;;;;;4936563;28;20381;-64
2022/01/26 09:59:06;;;;;;;10.02;5.57;;;2.70;99.90;;;;;;4919987;28;20031;-63
2022/01/26 10:01:48;;;;;;;19.92;6.38;;;2.70;99.90;;;;;;4944664;28;20365;-63
2022/01/26 10:04:29;;;;;;;33.80;10.77;;;2.80;99.90;;;;;;4945221;28;20024;-62
2022/01/26 10:07:05;;;;;;;26.60;8.13;;;2.80;99.90;;;;;;4953436;28;20043;-63
2022/01/26 10:17:39;;;;;;;33.13;9.90;;;2.70;99.90;;;;;;4947437;28;20450;-62
2022/01/26 10:20:06;;;;;;;29.25;9.50;;;2.70;99.90;;;;;;4947789;28;20559;-62
2022/01/26 10:22:36;;;;;;;10.93;6.70;;;2.80;99.90;;;;;;4950543;28;20035;-63
2022/01/26 10:25:08;;;;;;;23.77;9.27;;;2.80;99.90;;;;;;4948159;28;20031;-62
2022/01/26 10:27:38;;;;;;;23.25;9.98;;;2.90;99.90;;;;;;4948356;28;20035;-62
2022/01/26 10:30:06;;;;;;;10.55;4.43;;;2.90;99.90;;;;;;4948944;28;20488;-62
2022/01/26 10:32:39;;;;;;;32.47;10.90;;;2.90;99.90;;;;;;4949831;28;20106;-62
2022/01/26 10:35:06;;;;;;;20.05;8.70;;;2.80;99.90;;;;;;4945084;28;20063;-62
2022/01/26 10:37:33;;;;;;;19.27;6.65;;;2.90;99.90;;;;;;4945183;28;20038;-63
2022/01/26 10:40:15;;;;;;;8.25;4.07;;;3.00;99.90;;;;;;4949033;28;20030;-63
2022/01/26 10:42:56;;;;;;;17.42;7.43;;;3.00;99.90;;;;;;4947967;28;20125;-63
2022/01/26 10:45:49;;;;;;;34.10;9.90;;;3.10;99.90;;;;;;4951142;28;20388;-63
2022/01/26 10:48:23;;;;;;;29.27;9.02;;;3.20;99.90;;;;;;4947926;28;20022;-63
2022/01/26 10:53:39;;;;;;;6.70;4.35;;;3.20;99.90;;;;;;4944092;28;20042;-62
2022/01/26 10:56:06;;;;;;;27.05;7.80;;;3.20;99.90;;;;;;4943032;28;20027;-62
2022/01/26 10:58:32;;;;;;;29.13;9.15;;;3.10;99.90;;;;;;4951923;28;20035;-62
2022/01/26 11:00:58;;;;;;;24.83;8.13;;;3.10;99.90;;;;;;4944939;28;20020;-62
2022/01/26 11:03:24;;;;;;;56.00;7.88;;;3.10;99.90;;;;;;4947889;28;20038;-63
2022/01/26 11:05:50;;;;;;;30.30;7.65;;;3.10;99.90;;;;;;4951789;28;20449;-63
2022/01/26 11:08:17;;;;;;;15.27;8.05;;;3.10;99.90;;;;;;4942701;28;20043;-62
2022/01/26 11:10:46;;;;;;;23.27;8.85;;;3.10;99.90;;;;;;4943134;28;20877;-62
2022/01/26 11:13:30;;;;;;;38.92;8.85;;;3.10;99.90;;;;;;4944293;29;20023;-62
2022/01/26 11:16:10;;;;;;;39.20;10.73;;;3.20;99.90;;;;;;4940579;29;20020;-62
2022/01/26 11:18:53;;;;;;;14.48;7.55;;;3.10;99.90;;;;;;4946364;29;20049;-62
2022/01/26 11:21:36;;;;;;;23.25;7.95;;;3.10;99.90;;;;;;4945707;28;20060;-62
2022/01/26 11:24:20;;;;;;;16.95;7.10;;;3.00;99.90;;;;;;4947035;28;20393;-62
2022/01/26 11:26:49;;;;;;;34.17;12.05;;;3.00;99.90;;;;;;4945608;28;20058;-63
2022/01/26 11:29:27;;;;;;;44.10;14.85;;;3.00;99.90;;;;;;4946842;28;20443;-62
2022/01/26 11:32:07;;;;;;;14.05;4.88;;;2.90;99.90;;;;;;4942670;28;20035;-63
2022/01/26 11:34:34;;;;;;;27.20;10.93;;;3.00;99.90;;;;;;4944442;28;20035;-62
2022/01/26 11:37:00;;;;;;;18.33;6.75;;;2.90;99.90;;;;;;4945980;28;20050;-63
2022/01/26 11:45:01;;;;;;;16.23;6.53;;;3.00;99.90;;;;;;4948115;28;20507;-62
2022/01/26 11:45:13;;;;;;;39.88;12.30;;;3.10;99.90;;;;;;4951663;28;20067;-63
2022/01/26 11:47:44;;;;;;;20.88;8.15;;;3.00;99.90;;;;;;4951269;28;20285;-62
2022/01/26 11:50:20;;;;;;;16.67;5.57;;;3.10;99.90;;;;;;4948311;28;20086;-63
2022/01/26 11:53:07;;;;;;;18.08;6.07;;;3.10;99.90;;;;;;4949374;28;20028;-62
2022/01/26 11:55:48;;;;;;;17.60;7.20;;;3.10;99.90;;;;;;4944379;28;20094;-63
2022/01/26 11:58:35;;;;;;;46.65;10.25;;;3.10;99.90;;;;;;4944019;28;20039;-62
2022/01/26 12:01:14;;;;;;;18.48;8.43;;;3.10;99.90;;;;;;4942937;28;20115;-63
2022/01/26 12:03:47;;;;;;;16.13;6.80;;;3.10;99.90;;;;;;4946416;28;20023;-62
2022/01/26 12:06:20;;;;;;;8.45;4.28;;;3.00;99.90;;;;;;4947126;29;20027;-63
2022/01/26 12:08:46;;;;;;;20.67;9.15;;;3.00;99.90;;;;;;4946783;28;20369;-63
2022/01/26 12:11:15;;;;;;;27.60;10.15;;;3.00;99.90;;;;;;4921777;28;20031;-62
2022/01/26 12:13:42;;;;;;;35.83;6.78;;;3.00;99.90;;;;;;4936874;28;20134;-63
2022/01/26 12:16:20;;;;;;;27.50;8.88;;;3.10;99.90;;;;;;4919861;28;20016;-63
2022/01/26 12:19:13;;;;;;;25.55;8.52;;;3.10;99.90;;;;;;4945601;28;20024;-62
2022/01/26 12:43:37;;;;;;;27.88;10.90;;;3.20;99.90;;;;;;4949992;28;20882;-62
2022/01/26 12:46:06;;;;;;;20.75;7.85;;;3.10;99.90;;;;;;4946583;28;20079;-63
2022/01/26 12:48:34;;;;;;;25.00;7.25;;;3.20;99.90;;;;;;4947711;28;20041;-63
2022/01/26 12:51:02;;;;;;;17.27;7.72;;;3.30;99.90;;;;;;4951294;28;20118;-63
2022/01/26 12:53:29;;;;;;;13.68;5.97;;;3.40;99.90;;;;;;4941536;28;20038;-62
2022/01/26 12:56:01;;;;;;;26.45;8.18;;;3.40;99.90;;;;;;4949806;28;20543;-63
2022/01/26 12:58:30;;;;;;;15.82;6.15;;;3.40;99.90;;;;;;4947309;28;20050;-62
2022/01/26 13:01:18;;;;;;;15.07;4.97;;;3.40;99.90;;;;;;4921633;29;20035;-62
2022/01/26 13:03:47;;;;;;;3.92;3.35;;;3.40;99.90;;;;;;4939804;28;20043;-62
2022/01/26 13:06:14;;;;;;;18.58;7.32;;;3.40;99.90;;;;;;4935056;28;20114;-63
2022/01/26 13:08:49;;;;;;;23.80;8.10;;;3.40;99.90;;;;;;4949415;28;20027;-62
2022/01/26 13:11:33;;;;;;;10.27;5.25;;;3.30;99.90;;;;;;4946107;28;20388;-62
2022/01/26 13:14:17;;;;;;;14.80;6.85;;;3.40;99.90;;;;;;4954708;28;20027;-62
2022/01/26 13:17:13;;;;;;;16.55;6.30;;;3.30;99.90;;;;;;4948411;28;20038;-62
2022/01/26 13:38:59;;;;;;;9.70;5.63;;;3.20;99.90;;;;;;4943326;28;20042;-62
2022/01/26 13:41:38;;;;;;;17.70;4.97;;;3.20;99.90;;;;;;4922216;28;20512;-63
2022/01/26 13:49:37;;;;;;;6.50;3.33;;;3.20;99.90;;;;;;4949895;28;20034;-63
2022/01/26 13:59:43;;;;;;;21.60;6.43;;;3.20;99.90;;;;;;4951030;28;20027;-62
2022/01/26 14:02:09;;;;;;;24.55;8.40;;;3.20;99.90;;;;;;4951096;28;20136;-62
2022/01/26 14:04:34;;;;;;;41.53;7.50;;;3.10;99.90;;;;;;4951425;28;20221;-63
2022/01/26 14:07:00;;;;;;;37.35;12.23;;;3.10;99.90;;;;;;4948829;28;20031;-62
2022/01/26 14:09:26;;;;;;;17.33;5.80;;;3.10;99.90;;;;;;4948692;28;20027;-62
2022/01/26 14:11:52;;;;;;;23.50;7.10;;;3.10;99.90;;;;;;4949470;28;20038;-62
2022/01/26 14:14:34;;;;;;;11.02;4.97;;;3.10;99.90;;;;;;4951406;28;20082;-63
2022/01/26 14:17:02;;;;;;;17.95;5.15;;;3.20;99.90;;;;;;4949898;28;20033;-62
2022/01/26 14:27:19;;;;;;;;;;;3.20;99.90;;;;;;4942908;28;20181;-62
2022/01/26 14:35:11;;;;;;;7.68;4.05;;;3.20;99.90;;;;;;4947220;28;20042;-62
2022/01/26 15:33:52;;;;;;;12.40;5.40;;;3.10;99.90;;;;;;4948751;28;20035;-63
2022/01/26 15:50:48;;;;;;;6.50;3.95;;;3.10;99.90;;;;;;4949555;28;20122;-63
2022/01/26 16:07:03;;;;;;;3.80;2.22;;;3.20;99.90;;;;;;4950056;28;20058;-62
2022/01/26 16:37:27;;;;;;;30.00;7.75;;;3.30;99.90;;;;;;4948646;28;20035;-63
2022/01/26 18:16:56;;;;;;;18.52;7.90;;;3.10;99.90;;;;;;4947804;29;20083;-62
2022/01/26 18:33:09;;;;;;;19.27;5.93;;;3.10;99.90;;;;;;4946610;28;20087;-62
2022/01/26 18:46:49;;;;;;;10.27;5.85;;;3.00;99.90;;;;;;4949060;28;20031;-62
2022/01/26 18:49:19;;;;;;;8.20;4.35;;;3.00;99.90;;;;;;4947765;29;20126;-62
2022/01/26 18:51:57;;;;;;;15.88;6.57;;;2.90;99.90;;;;;;4964020;28;20027;-62
2022/01/26 18:54:30;;;;;;;19.15;7.65;;;3.00;99.90;;;;;;4946371;28;20047;-62
2022/01/26 18:56:59;;;;;;;6.43;4.50;;;3.00;99.90;;;;;;4945708;28;20040;-62
2022/01/26 18:59:25;;;;;;;8.52;5.07;;;3.00;99.90;;;;;;4944872;29;20026;-62
2022/01/26 19:01:52;;;;;;;17.05;7.13;;;2.90;99.90;;;;;;4948741;28;20475;-63
2022/01/26 19:04:24;;;;;;;21.33;6.03;;;2.90;99.90;;;;;;4945371;28;20086;-62
2022/01/26 19:06:51;;;;;;;11.23;4.93;;;2.90;99.90;;;;;;4949607;28;20039;-62
2022/01/26 19:09:21;;;;;;;11.95;5.20;;;3.00;99.90;;;;;;4943733;28;20031;-62
2022/01/26 19:11:47;;;;;;;21.63;7.15;;;3.00;99.90;;;;;;4947634;28;20034;-63
2022/01/26 19:14:12;;;;;;;23.80;6.13;;;2.90;99.90;;;;;;4945803;28;20023;-62
2022/01/26 19:16:45;;;;;;;15.82;4.50;;;3.00;99.90;;;;;;4944865;29;20034;-62
2022/01/26 19:19:35;;;;;;;16.20;7.75;;;3.00;99.90;;;;;;4947304;28;20039;-62
2022/01/26 19:22:25;;;;;;;23.95;6.80;;;2.90;99.90;;;;;;4955285;28;20495;-63
2022/01/26 19:25:14;;;;;;;25.73;5.05;;;2.90;99.90;;;;;;4955331;28;20046;-62
2022/01/26 19:27:46;;;;;;;22.23;6.45;;;3.00;99.90;;;;;;4960916;28;20515;-63
2022/01/26 19:46:02;;;;;;;8.50;4.70;;;3.00;99.90;;;;;;4943741;28;20123;-62
2022/01/26 19:51:13;;;;;;;16.20;4.45;;;2.90;99.90;;;;;;4944452;28;20061;-62
2022/01/26 19:53:39;;;;;;;17.77;5.75;;;2.90;99.90;;;;;;4927950;29;20032;-62
2022/01/26 19:56:05;;;;;;;14.20;5.75;;;2.90;99.90;;;;;;4928821;28;20210;-62
2022/01/26 19:58:31;;;;;;;12.30;5.38;;;3.00;99.90;;;;;;4950419;28;20034;-62
2022/01/26 20:00:57;;;;;;;27.52;8.35;;;2.90;99.90;;;;;;4948259;28;20039;-62
2022/01/26 20:03:23;;;;;;;9.60;4.10;;;2.90;99.90;;;;;;4948448;28;20097;-62
2022/01/26 20:05:53;;;;;;;20.77;7.85;;;2.90;99.90;;;;;;4946298;28;20106;-62
2022/01/26 20:08:38;;;;;;;13.00;5.38;;;2.80;99.90;;;;;;4941981;28;20096;-62
2022/01/26 20:11:12;;;;;;;22.33;8.20;;;2.90;99.90;;;;;;4944324;28;20118;-62